sensor_id;sensor_type;location;lat;lon;timestamp;pressure;altitude;pressure_sealevel;temperature;humidity
57847;BME280;43675;50.030;21.952;2023-01-24T00:01:02;100568.58;;;2.13;82.74
57847;BME280;43675;50.030;21.952;2023-01-24T00:03:28;100567.08;;;2.14;82.96
57847;BME280;43675;50.030;21.952;2023-01-24T00:05:55;100570.14;;;2.13;83.08
57847;BME280;43675;50.030;21.952;2023-01-24T00:08:21;100569.23;;;2.11;82.98
57847;BME280;43675;50.030;21.952;2023-01-24T00:10:56;100571.93;;;2.11;83.12
57847;BME280;43675;50.030;21.952;2023-01-24T00:13:23;100569.34;;;2.10;83.11
57847;BME280;43675;50.030;21.952;2023-01-24T00:15:50;100567.42;;;2.10;82.93
57847;BME280;43675;50.030;21.952;2023-01-24T00:18:16;100563.23;;;2.07;83.19
57847;BME280;43675;50.030;21.952;2023-01-24T00:20:43;100563.52;;;2.06;83.15
57847;BME280;43675;50.030;21.952;2023-01-24T00:23:09;100562.18;;;2.04;83.23
57847;BME280;43675;50.030;21.952;2023-01-24T00:25:36;100561.34;;;2.04;83.24
57847;BME280;43675;50.030;21.952;2023-01-24T00:28:03;100563.59;;;2.05;83.22
57847;BME280;43675;50.030;21.952;2023-01-24T00:30:29;100557.08;;;2.04;83.58
57847;BME280;43675;50.030;21.952;2023-01-24T00:32:56;100559.48;;;2.03;83.31
57847;BME280;43675;50.030;21.952;2023-01-24T00:35:23;100561.30;;;2.00;83.41
57847;BME280;43675;50.030;21.952;2023-01-24T00:37:49;100568.67;;;1.98;83.53
57847;BME280;43675;50.030;21.952;2023-01-24T00:40:16;100567.13;;;1.95;83.53
57847;BME280;43675;50.030;21.952;2023-01-24T00:42:42;100566.16;;;1.94;83.62
57847;BME280;43675;50.030;21.952;2023-01-24T00:45:09;100563.75;;;1.93;83.85
57847;BME280;43675;50.030;21.952;2023-01-24T00:47:35;100568.34;;;1.91;83.74
57847;BME280;43675;50.030;21.952;2023-01-24T00:50:02;100565.27;;;1.89;83.90
57847;BME280;43675;50.030;21.952;2023-01-24T00:52:29;100571.27;;;1.88;83.72
57847;BME280;43675;50.030;21.952;2023-01-24T00:54:55;100576.14;;;1.90;84.06
57847;BME280;43675;50.030;21.952;2023-01-24T00:57:22;100576.62;;;1.91;83.95
57847;BME280;43675;50.030;21.952;2023-01-24T00:59:49;100576.63;;;1.91;83.84
57847;BME280;43675;50.030;21.952;2023-01-24T01:02:15;100583.67;;;1.91;84.13
57847;BME280;43675;50.030;21.952;2023-01-24T01:04:42;100581.63;;;1.92;83.98
57847;BME280;43675;50.030;21.952;2023-01-24T01:07:08;100584.40;;;1.93;84.14
57847;BME280;43675;50.030;21.952;2023-01-24T01:09:35;100583.44;;;1.94;83.85
57847;BME280;43675;50.030;21.952;2023-01-24T01:12:01;100584.62;;;1.95;83.85
57847;BME280;43675;50.030;21.952;2023-01-24T01:14:28;100585.34;;;1.95;84.00
57847;BME280;43675;50.030;21.952;2023-01-24T01:16:55;100586.38;;;1.95;83.84
57847;BME280;43675;50.030;21.952;2023-01-24T01:19:21;100589.35;;;1.95;84.13
57847;BME280;43675;50.030;21.952;2023-01-24T01:21:48;100590.39;;;1.96;84.16
57847;BME280;43675;50.030;21.952;2023-01-24T01:24:14;100588.79;;;1.96;84.14
57847;BME280;43675;50.030;21.952;2023-01-24T01:26:41;100586.66;;;1.96;84.20
57847;BME280;43675;50.030;21.952;2023-01-24T01:29:07;100588.82;;;1.95;84.21
57847;BME280;43675;50.030;21.952;2023-01-24T01:31:35;100588.14;;;1.95;84.20
57847;BME280;43675;50.030;21.952;2023-01-24T01:34:02;100584.48;;;1.94;84.12
57847;BME280;43675;50.030;21.952;2023-01-24T01:36:28;100587.44;;;1.95;84.30
57847;BME280;43675;50.030;21.952;2023-01-24T01:38:55;100588.85;;;1.93;84.20
57847;BME280;43675;50.030;21.952;2023-01-24T01:41:22;100587.88;;;1.91;84.21
57847;BME280;43675;50.030;21.952;2023-01-24T01:43:48;100586.02;;;1.90;84.35
57847;BME280;43675;50.030;21.952;2023-01-24T01:46:21;100582.48;;;1.88;84.34
57847;BME280;43675;50.030;21.952;2023-01-24T01:48:53;100580.85;;;1.86;84.18
57847;BME280;43675;50.030;21.952;2023-01-24T01:52:04;100582.34;;;1.85;84.34
57847;BME280;43675;50.030;21.952;2023-01-24T01:54:30;100581.80;;;1.83;84.43
57847;BME280;43675;50.030;21.952;2023-01-24T01:57:04;100576.36;;;1.84;84.40
57847;BME280;43675;50.030;21.952;2023-01-24T01:59:38;100577.64;;;1.84;84.12
57847;BME280;43675;50.030;21.952;2023-01-24T02:02:07;100582.91;;;1.84;84.21
57847;BME280;43675;50.030;21.952;2023-01-24T02:04:37;100582.41;;;1.84;84.59
57847;BME280;43675;50.030;21.952;2023-01-24T02:07:23;100585.61;;;1.84;84.41
57847;BME280;43675;50.030;21.952;2023-01-24T02:09:52;100590.52;;;1.82;84.35
57847;BME280;43675;50.030;21.952;2023-01-24T02:12:22;100587.03;;;1.81;84.51
57847;BME280;43675;50.030;21.952;2023-01-24T02:14:53;100587.52;;;1.82;84.36
57847;BME280;43675;50.030;21.952;2023-01-24T02:17:22;100588.98;;;1.81;84.38
57847;BME280;43675;50.030;21.952;2023-01-24T02:25:29;100589.00;;;1.76;84.80
57847;BME280;43675;50.030;21.952;2023-01-24T02:27:57;100593.61;;;1.76;84.60
57847;BME280;43675;50.030;21.952;2023-01-24T02:30:24;100591.86;;;1.78;84.75
57847;BME280;43675;50.030;21.952;2023-01-24T02:32:50;100588.27;;;1.79;84.91
57847;BME280;43675;50.030;21.952;2023-01-24T02:35:35;100590.12;;;1.80;84.77
57847;BME280;43675;50.030;21.952;2023-01-24T02:38:04;100588.42;;;1.81;84.70
57847;BME280;43675;50.030;21.952;2023-01-24T02:40:32;100589.14;;;1.81;84.64
57847;BME280;43675;50.030;21.952;2023-01-24T02:43:01;100584.81;;;1.80;84.67
57847;BME280;43675;50.030;21.952;2023-01-24T02:45:31;100583.66;;;1.79;84.57
57847;BME280;43675;50.030;21.952;2023-01-24T02:48:00;100580.23;;;1.80;84.81
57847;BME280;43675;50.030;21.952;2023-01-24T02:50:29;100580.68;;;1.81;84.74
57847;BME280;43675;50.030;21.952;2023-01-24T02:52:56;100578.41;;;1.81;84.87
57847;BME280;43675;50.030;21.952;2023-01-24T02:55:23;100577.67;;;1.81;84.96
57847;BME280;43675;50.030;21.952;2023-01-24T02:57:50;100578.16;;;1.82;84.78
57847;BME280;43675;50.030;21.952;2023-01-24T03:00:17;100580.46;;;1.82;85.10
57847;BME280;43675;50.030;21.952;2023-01-24T03:02:44;100579.49;;;1.83;84.76
57847;BME280;43675;50.030;21.952;2023-01-24T03:05:10;100576.74;;;1.86;85.10
57847;BME280;43675;50.030;21.952;2023-01-24T03:07:37;100577.36;;;1.88;84.70
57847;BME280;43675;50.030;21.952;2023-01-24T03:10:04;100574.63;;;1.89;84.99
57847;BME280;43675;50.030;21.952;2023-01-24T03:12:31;100577.09;;;1.89;84.92
57847;BME280;43675;50.030;21.952;2023-01-24T03:14:57;100578.85;;;1.89;85.09
57847;BME280;43675;50.030;21.952;2023-01-24T03:17:24;100587.05;;;1.88;84.98
57847;BME280;43675;50.030;21.952;2023-01-24T03:19:50;100584.86;;;1.87;85.08
57847;BME280;43675;50.030;21.952;2023-01-24T03:22:17;100588.25;;;1.84;84.96
57847;BME280;43675;50.030;21.952;2023-01-24T03:24:43;100583.20;;;1.83;85.18
57847;BME280;43675;50.030;21.952;2023-01-24T03:27:10;100578.28;;;1.82;85.03
57847;BME280;43675;50.030;21.952;2023-01-24T03:29:37;100578.33;;;1.82;85.24
57847;BME280;43675;50.030;21.952;2023-01-24T03:32:04;100579.77;;;1.81;85.09
57847;BME280;43675;50.030;21.952;2023-01-24T03:34:30;100581.64;;;1.80;84.98
57847;BME280;43675;50.030;21.952;2023-01-24T03:36:58;100581.54;;;1.79;85.00
57847;BME280;43675;50.030;21.952;2023-01-24T03:39:25;100575.98;;;1.78;85.14
57847;BME280;43675;50.030;21.952;2023-01-24T03:41:51;100579.06;;;1.79;85.25
57847;BME280;43675;50.030;21.952;2023-01-24T03:44:18;100577.90;;;1.78;85.03
57847;BME280;43675;50.030;21.952;2023-01-24T03:46:44;100575.80;;;1.78;85.06
57847;BME280;43675;50.030;21.952;2023-01-24T03:49:11;100582.35;;;1.78;85.39
57847;BME280;43675;50.030;21.952;2023-01-24T03:51:38;100585.67;;;1.78;85.02
57847;BME280;43675;50.030;21.952;2023-01-24T03:54:04;100589.21;;;1.78;85.40
57847;BME280;43675;50.030;21.952;2023-01-24T03:56:31;100592.48;;;1.79;85.30
57847;BME280;43675;50.030;21.952;2023-01-24T03:58:57;100598.83;;;1.79;85.28
57847;BME280;43675;50.030;21.952;2023-01-24T04:01:24;100604.64;;;1.79;85.29
57847;BME280;43675;50.030;21.952;2023-01-24T04:03:51;100606.58;;;1.79;85.36
57847;BME280;43675;50.030;21.952;2023-01-24T04:06:17;100605.35;;;1.79;85.20
57847;BME280;43675;50.030;21.952;2023-01-24T04:08:44;100602.19;;;1.79;85.29
57847;BME280;43675;50.030;21.952;2023-01-24T04:11:10;100599.71;;;1.79;85.20
57847;BME280;43675;50.030;21.952;2023-01-24T04:13:37;100600.54;;;1.80;85.16
57847;BME280;43675;50.030;21.952;2023-01-24T04:16:05;100599.97;;;1.78;85.33
57847;BME280;43675;50.030;21.952;2023-01-24T04:18:32;100601.17;;;1.78;85.28
57847;BME280;43675;50.030;21.952;2023-01-24T04:21:03;100597.64;;;1.79;85.37
57847;BME280;43675;50.030;21.952;2023-01-24T04:23:30;100595.94;;;1.78;85.19
57847;BME280;43675;50.030;21.952;2023-01-24T04:25:57;100598.61;;;1.77;85.19
57847;BME280;43675;50.030;21.952;2023-01-24T04:28:24;100599.27;;;1.76;85.34
57847;BME280;43675;50.030;21.952;2023-01-24T04:30:58;100595.96;;;1.75;85.36
57847;BME280;43675;50.030;21.952;2023-01-24T04:33:25;100603.45;;;1.74;85.27
57847;BME280;43675;50.030;21.952;2023-01-24T04:35:55;100607.91;;;1.73;85.15
57847;BME280;43675;50.030;21.952;2023-01-24T04:38:22;100606.17;;;1.73;85.36
57847;BME280;43675;50.030;21.952;2023-01-24T04:41:01;100606.10;;;1.74;85.27
57847;BME280;43675;50.030;21.952;2023-01-24T04:43:28;100611.95;;;1.72;85.22
57847;BME280;43675;50.030;21.952;2023-01-24T04:45:56;100612.34;;;1.71;85.35
57847;BME280;43675;50.030;21.952;2023-01-24T04:48:23;100610.40;;;1.71;85.51
57847;BME280;43675;50.030;21.952;2023-01-24T04:50:50;100616.49;;;1.72;85.52
57847;BME280;43675;50.030;21.952;2023-01-24T04:53:16;100612.98;;;1.71;85.47
57847;BME280;43675;50.030;21.952;2023-01-24T04:55:43;100614.89;;;1.72;85.56
57847;BME280;43675;50.030;21.952;2023-01-24T04:58:09;100617.48;;;1.73;85.48
57847;BME280;43675;50.030;21.952;2023-01-24T05:00:36;100619.67;;;1.72;85.44
57847;BME280;43675;50.030;21.952;2023-01-24T05:03:03;100621.88;;;1.73;85.25
57847;BME280;43675;50.030;21.952;2023-01-24T05:05:29;100618.15;;;1.73;85.39
57847;BME280;43675;50.030;21.952;2023-01-24T05:07:56;100622.88;;;1.74;85.67
57847;BME280;43675;50.030;21.952;2023-01-24T05:10:22;100616.64;;;1.72;85.52
57847;BME280;43675;50.030;21.952;2023-01-24T05:12:49;100621.20;;;1.72;85.30
57847;BME280;43675;50.030;21.952;2023-01-24T05:15:15;100619.50;;;1.72;85.49
57847;BME280;43675;50.030;21.952;2023-01-24T05:17:45;100621.04;;;1.73;85.50
57847;BME280;43675;50.030;21.952;2023-01-24T05:20:12;100619.50;;;1.74;85.55
57847;BME280;43675;50.030;21.952;2023-01-24T05:22:39;100618.42;;;1.74;85.49
57847;BME280;43675;50.030;21.952;2023-01-24T05:25:06;100616.39;;;1.75;85.60
57847;BME280;43675;50.030;21.952;2023-01-24T05:27:33;100620.56;;;1.76;85.52
57847;BME280;43675;50.030;21.952;2023-01-24T05:29:59;100625.04;;;1.76;85.45
57847;BME280;43675;50.030;21.952;2023-01-24T05:32:26;100622.55;;;1.74;85.62
57847;BME280;43675;50.030;21.952;2023-01-24T05:34:53;100624.11;;;1.71;85.54
57847;BME280;43675;50.030;21.952;2023-01-24T05:37:19;100624.81;;;1.69;85.30
57847;BME280;43675;50.030;21.952;2023-01-24T05:39:46;100624.82;;;1.66;85.39
57847;BME280;43675;50.030;21.952;2023-01-24T05:42:13;100623.91;;;1.64;85.41
57847;BME280;43675;50.030;21.952;2023-01-24T05:44:39;100616.68;;;1.65;85.69
57847;BME280;43675;50.030;21.952;2023-01-24T05:47:06;100619.08;;;1.63;85.45
57847;BME280;43675;50.030;21.952;2023-01-24T05:49:32;100617.77;;;1.62;85.46
57847;BME280;43675;50.030;21.952;2023-01-24T05:51:59;100624.36;;;1.61;85.54
57847;BME280;43675;50.030;21.952;2023-01-24T05:57:00;100629.09;;;1.64;85.53
57847;BME280;43675;50.030;21.952;2023-01-24T05:59:27;100636.39;;;1.63;85.39
57847;BME280;43675;50.030;21.952;2023-01-24T06:01:53;100634.31;;;1.60;85.58
57847;BME280;43675;50.030;21.952;2023-01-24T06:04:20;100633.13;;;1.57;85.53
57847;BME280;43675;50.030;21.952;2023-01-24T06:06:48;100634.34;;;1.55;85.50
57847;BME280;43675;50.030;21.952;2023-01-24T06:09:14;100641.75;;;1.54;85.46
57847;BME280;43675;50.030;21.952;2023-01-24T06:11:41;100642.47;;;1.54;85.48
57847;BME280;43675;50.030;21.952;2023-01-24T06:14:07;100644.11;;;1.54;85.63
57847;BME280;43675;50.030;21.952;2023-01-24T06:16:34;100645.64;;;1.52;85.57
57847;BME280;43675;50.030;21.952;2023-01-24T06:19:01;100652.73;;;1.52;85.51
57847;BME280;43675;50.030;21.952;2023-01-24T06:21:53;100656.20;;;1.52;85.64
57847;BME280;43675;50.030;21.952;2023-01-24T06:24:26;100659.47;;;1.53;85.52
57847;BME280;43675;50.030;21.952;2023-01-24T06:26:54;100667.84;;;1.55;85.43
57847;BME280;43675;50.030;21.952;2023-01-24T06:29:21;100669.19;;;1.56;85.38
57847;BME280;43675;50.030;21.952;2023-01-24T06:32:20;100669.53;;;1.53;85.38
57847;BME280;43675;50.030;21.952;2023-01-24T06:37:37;100670.75;;;1.49;85.30
57847;BME280;43675;50.030;21.952;2023-01-24T06:40:10;100678.21;;;1.46;85.41
57847;BME280;43675;50.030;21.952;2023-01-24T06:42:38;100675.84;;;1.44;85.44
57847;BME280;43675;50.030;21.952;2023-01-24T06:45:06;100676.42;;;1.43;85.37
57847;BME280;43675;50.030;21.952;2023-01-24T06:47:33;100684.58;;;1.42;85.51
57847;BME280;43675;50.030;21.952;2023-01-24T06:50:00;100692.79;;;1.44;85.42
57847;BME280;43675;50.030;21.952;2023-01-24T06:52:26;100689.46;;;1.43;85.52
57847;BME280;43675;50.030;21.952;2023-01-24T06:54:53;100693.54;;;1.38;85.49
57847;BME280;43675;50.030;21.952;2023-01-24T06:57:19;100703.17;;;1.34;85.42
57847;BME280;43675;50.030;21.952;2023-01-24T06:59:46;100700.04;;;1.31;85.56
57847;BME280;43675;50.030;21.952;2023-01-24T07:02:12;100696.77;;;1.27;85.43
57847;BME280;43675;50.030;21.952;2023-01-24T07:04:39;100699.60;;;1.25;85.49
57847;BME280;43675;50.030;21.952;2023-01-24T07:07:05;100700.88;;;1.24;85.62
57847;BME280;43675;50.030;21.952;2023-01-24T07:09:32;100702.47;;;1.24;85.50
57847;BME280;43675;50.030;21.952;2023-01-24T07:11:59;100706.30;;;1.22;85.59
57847;BME280;43675;50.030;21.952;2023-01-24T07:14:26;100703.61;;;1.23;85.59
57847;BME280;43675;50.030;21.952;2023-01-24T07:16:53;100699.60;;;1.22;85.48
57847;BME280;43675;50.030;21.952;2023-01-24T07:19:20;100701.52;;;1.20;85.63
57847;BME280;43675;50.030;21.952;2023-01-24T07:21:47;100701.28;;;1.18;85.54
57847;BME280;43675;50.030;21.952;2023-01-24T07:24:17;100701.77;;;1.19;85.56
57847;BME280;43675;50.030;21.952;2023-01-24T07:26:45;100704.11;;;1.21;85.68
57847;BME280;43675;50.030;21.952;2023-01-24T07:29:12;100703.13;;;1.25;85.69
57847;BME280;43675;50.030;21.952;2023-01-24T07:31:38;100705.66;;;1.24;85.40
57847;BME280;43675;50.030;21.952;2023-01-24T07:34:05;100709.04;;;1.21;85.48
57847;BME280;43675;50.030;21.952;2023-01-24T07:36:31;100709.19;;;1.21;85.63
57847;BME280;43675;50.030;21.952;2023-01-24T07:38:58;100707.55;;;1.22;85.59
57847;BME280;43675;50.030;21.952;2023-01-24T07:41:25;100709.84;;;1.22;85.59
57847;BME280;43675;50.030;21.952;2023-01-24T07:43:51;100714.61;;;1.22;85.48
57847;BME280;43675;50.030;21.952;2023-01-24T07:46:18;100717.82;;;1.22;85.66
57847;BME280;43675;50.030;21.952;2023-01-24T07:48:45;100721.06;;;1.23;85.47
57847;BME280;43675;50.030;21.952;2023-01-24T07:51:12;100721.39;;;1.23;85.46
57847;BME280;43675;50.030;21.952;2023-01-24T07:53:38;100723.79;;;1.24;85.33
57847;BME280;43675;50.030;21.952;2023-01-24T07:56:05;100724.68;;;1.26;85.45
57847;BME280;43675;50.030;21.952;2023-01-24T07:58:32;100728.18;;;1.27;85.32
57847;BME280;43675;50.030;21.952;2023-01-24T08:00:59;100725.01;;;1.27;85.36
57847;BME280;43675;50.030;21.952;2023-01-24T08:03:25;100725.66;;;1.28;85.21
57847;BME280;43675;50.030;21.952;2023-01-24T08:05:52;100728.92;;;1.27;85.27
57847;BME280;43675;50.030;21.952;2023-01-24T08:08:19;100727.81;;;1.25;85.13
57847;BME280;43675;50.030;21.952;2023-01-24T08:10:45;100729.98;;;1.24;85.03
57847;BME280;43675;50.030;21.952;2023-01-24T08:13:12;100733.23;;;1.23;85.10
57847;BME280;43675;50.030;21.952;2023-01-24T08:15:38;100741.45;;;1.24;84.97
57847;BME280;43675;50.030;21.952;2023-01-24T08:18:05;100746.15;;;1.25;84.96
57847;BME280;43675;50.030;21.952;2023-01-24T08:20:32;100745.97;;;1.25;85.10
57847;BME280;43675;50.030;21.952;2023-01-24T08:22:59;100748.73;;;1.28;84.92
57847;BME280;43675;50.030;21.952;2023-01-24T08:25:26;100747.46;;;1.29;85.01
57847;BME280;43675;50.030;21.952;2023-01-24T08:27:53;100748.16;;;1.31;84.95
57847;BME280;43675;50.030;21.952;2023-01-24T08:30:20;100748.88;;;1.36;84.68
57847;BME280;43675;50.030;21.952;2023-01-24T08:32:46;100753.18;;;1.33;84.69
57847;BME280;43675;50.030;21.952;2023-01-24T08:35:13;100754.62;;;1.30;84.76
57847;BME280;43675;50.030;21.952;2023-01-24T08:37:39;100754.30;;;1.29;84.72
57847;BME280;43675;50.030;21.952;2023-01-24T08:40:07;100755.04;;;1.29;84.73
57847;BME280;43675;50.030;21.952;2023-01-24T08:42:35;100757.03;;;1.28;84.74
57847;BME280;43675;50.030;21.952;2023-01-24T08:45:02;100755.19;;;1.29;84.62
57847;BME280;43675;50.030;21.952;2023-01-24T08:47:28;100756.06;;;1.29;84.68
57847;BME280;43675;50.030;21.952;2023-01-24T08:49:55;100757.20;;;1.30;84.48
57847;BME280;43675;50.030;21.952;2023-01-24T08:52:22;100763.35;;;1.33;84.55
57847;BME280;43675;50.030;21.952;2023-01-24T08:54:48;100767.82;;;1.35;84.59
57847;BME280;43675;50.030;21.952;2023-01-24T08:57:15;100771.66;;;1.36;84.58
57847;BME280;43675;50.030;21.952;2023-01-24T08:59:41;100774.77;;;1.34;84.49
57847;BME280;43675;50.030;21.952;2023-01-24T09:02:13;100778.61;;;1.30;84.34
57847;BME280;43675;50.030;21.952;2023-01-24T09:04:41;100779.14;;;1.22;84.25
57847;BME280;43675;50.030;21.952;2023-01-24T09:07:09;100778.23;;;1.17;84.13
57847;BME280;43675;50.030;21.952;2023-01-24T09:09:36;100770.55;;;1.14;84.16
57847;BME280;43675;50.030;21.952;2023-01-24T09:12:03;100772.02;;;1.13;84.13
57847;BME280;43675;50.030;21.952;2023-01-24T09:14:30;100765.38;;;1.12;84.15
57847;BME280;43675;50.030;21.952;2023-01-24T09:16:57;100766.13;;;1.11;84.35
57847;BME280;43675;50.030;21.952;2023-01-24T09:19:23;100765.27;;;1.13;84.34
57847;BME280;43675;50.030;21.952;2023-01-24T09:21:50;100759.43;;;1.17;84.22
57847;BME280;43675;50.030;21.952;2023-01-24T09:24:16;100754.80;;;1.19;84.01
57847;BME280;43675;50.030;21.952;2023-01-24T09:26:44;100757.07;;;1.20;84.03
57847;BME280;43675;50.030;21.952;2023-01-24T09:29:11;100760.35;;;1.21;84.00
57847;BME280;43675;50.030;21.952;2023-01-24T09:31:37;100760.79;;;1.25;83.64
57847;BME280;43675;50.030;21.952;2023-01-24T09:34:04;100760.77;;;1.25;83.65
57847;BME280;43675;50.030;21.952;2023-01-24T09:36:30;100765.08;;;1.26;83.48
57847;BME280;43675;50.030;21.952;2023-01-24T09:38:57;100759.51;;;1.28;83.37
57847;BME280;43675;50.030;21.952;2023-01-24T09:41:52;100763.54;;;1.31;83.45
57847;BME280;43675;50.030;21.952;2023-01-24T09:44:34;100764.77;;;1.36;83.24
57847;BME280;43675;50.030;21.952;2023-01-24T09:47:21;100762.95;;;1.39;83.09
57847;BME280;43675;50.030;21.952;2023-01-24T09:49:52;100763.09;;;1.40;83.00
57847;BME280;43675;50.030;21.952;2023-01-24T09:52:33;100762.50;;;1.38;82.90
57847;BME280;43675;50.030;21.952;2023-01-24T09:55:24;100759.94;;;1.40;82.93
57847;BME280;43675;50.030;21.952;2023-01-24T09:57:58;100756.78;;;1.42;82.80
57847;BME280;43675;50.030;21.952;2023-01-24T10:00:30;100757.80;;;1.45;82.68
57847;BME280;43675;50.030;21.952;2023-01-24T10:02:59;100759.05;;;1.47;82.50
57847;BME280;43675;50.030;21.952;2023-01-24T10:05:35;100755.00;;;1.45;82.17
57847;BME280;43675;50.030;21.952;2023-01-24T10:24:14;100763.82;;;1.32;82.25
57847;BME280;43675;50.030;21.952;2023-01-24T10:26:48;100757.84;;;1.34;81.99
57847;BME280;43675;50.030;21.952;2023-01-24T10:29:22;100753.53;;;1.40;82.06
57847;BME280;43675;50.030;21.952;2023-01-24T10:34:43;100746.56;;;1.49;82.01
57847;BME280;43675;50.030;21.952;2023-01-24T10:39:37;100744.66;;;1.59;81.80
57847;BME280;43675;50.030;21.952;2023-01-24T10:42:33;100739.22;;;1.61;81.87
57847;BME280;43675;50.030;21.952;2023-01-24T10:48:36;100735.20;;;1.68;81.57
57847;BME280;43675;50.030;21.952;2023-01-24T10:51:22;100735.34;;;1.68;81.30
57847;BME280;43675;50.030;21.952;2023-01-24T10:53:50;100734.05;;;1.66;81.05
57847;BME280;43675;50.030;21.952;2023-01-24T10:56:19;100734.36;;;1.65;81.17
57847;BME280;43675;50.030;21.952;2023-01-24T10:59:10;100732.96;;;1.62;81.09
57847;BME280;43675;50.030;21.952;2023-01-24T11:01:47;100730.52;;;1.62;80.98
57847;BME280;43675;50.030;21.952;2023-01-24T11:04:21;100728.81;;;1.61;81.05
57847;BME280;43675;50.030;21.952;2023-01-24T11:06:49;100724.33;;;1.59;80.97
57847;BME280;43675;50.030;21.952;2023-01-24T11:09:19;100726.71;;;1.56;80.85
57847;BME280;43675;50.030;21.952;2023-01-24T11:11:49;100728.17;;;1.52;80.79
57847;BME280;43675;50.030;21.952;2023-01-24T11:14:19;100722.41;;;1.52;80.93
57847;BME280;43675;50.030;21.952;2023-01-24T11:16:50;100720.91;;;1.53;80.59
57847;BME280;43675;50.030;21.952;2023-01-24T11:19:25;100718.71;;;1.52;80.64
57847;BME280;43675;50.030;21.952;2023-01-24T11:21:55;100718.04;;;1.48;80.67
57847;BME280;43675;50.030;21.952;2023-01-24T11:24:23;100712.48;;;1.44;80.53
57847;BME280;43675;50.030;21.952;2023-01-24T11:29:40;100711.25;;;1.37;80.58
57847;BME280;43675;50.030;21.952;2023-01-24T11:37:38;100706.79;;;1.40;80.57
57847;BME280;43675;50.030;21.952;2023-01-24T11:43:02;100696.52;;;1.51;80.63
57847;BME280;43675;50.030;21.952;2023-01-24T11:46:00;100688.70;;;1.62;80.45
57847;BME280;43675;50.030;21.952;2023-01-24T11:52:00;100683.20;;;1.84;80.28
57847;BME280;43675;50.030;21.952;2023-01-24T11:57:26;100682.05;;;2.07;79.86
57847;BME280;43675;50.030;21.952;2023-01-24T12:00:37;100677.50;;;2.09;79.75
57847;BME280;43675;50.030;21.952;2023-01-24T12:05:55;100675.68;;;2.17;79.56
57847;BME280;43675;50.030;21.952;2023-01-24T12:11:15;100679.39;;;2.17;79.55
57847;BME280;43675;50.030;21.952;2023-01-24T12:17:01;100682.77;;;2.11;79.50
57847;BME280;43675;50.030;21.952;2023-01-24T12:19:56;100686.17;;;2.06;79.24
57847;BME280;43675;50.030;21.952;2023-01-24T12:22:28;100684.30;;;2.03;79.58
57847;BME280;43675;50.030;21.952;2023-01-24T12:25:10;100681.12;;;1.98;79.28
57847;BME280;43675;50.030;21.952;2023-01-24T12:27:39;100682.48;;;1.89;79.29
57847;BME280;43675;50.030;21.952;2023-01-24T12:30:18;100682.16;;;1.83;79.58
57847;BME280;43675;50.030;21.952;2023-01-24T12:32:53;100682.09;;;1.80;79.45
57847;BME280;43675;50.030;21.952;2023-01-24T12:35:32;100683.43;;;1.76;79.35
57847;BME280;43675;50.030;21.952;2023-01-24T12:38:04;100687.30;;;1.71;79.40
57847;BME280;43675;50.030;21.952;2023-01-24T12:40:55;100683.48;;;1.66;79.45
57847;BME280;43675;50.030;21.952;2023-01-24T12:43:37;100690.13;;;1.64;79.31
57847;BME280;43675;50.030;21.952;2023-01-24T12:46:15;100691.16;;;1.62;79.76
57847;BME280;43675;50.030;21.952;2023-01-24T12:51:58;100690.82;;;1.54;79.68
57847;BME280;43675;50.030;21.952;2023-01-24T12:54:48;100689.63;;;1.51;79.38
57847;BME280;43675;50.030;21.952;2023-01-24T12:57:31;100695.13;;;1.48;79.68
57847;BME280;43675;50.030;21.952;2023-01-24T12:59:58;100696.25;;;1.50;79.71
57847;BME280;43675;50.030;21.952;2023-01-24T13:02:46;100696.21;;;1.48;79.65
57847;BME280;43675;50.030;21.952;2023-01-24T13:08:28;100704.72;;;1.42;79.66
57847;BME280;43675;50.030;21.952;2023-01-24T13:11:16;100707.14;;;1.41;79.66
57847;BME280;43675;50.030;21.952;2023-01-24T13:14:00;100709.63;;;1.40;79.59
57847;BME280;43675;50.030;21.952;2023-01-24T13:21:50;100708.54;;;1.35;79.75
57847;BME280;43675;50.030;21.952;2023-01-24T13:27:10;100705.23;;;1.35;79.73
57847;BME280;43675;50.030;21.952;2023-01-24T13:32:31;100701.82;;;1.36;79.79
57847;BME280;43675;50.030;21.952;2023-01-24T13:34:59;100701.17;;;1.35;79.69
57847;BME280;43675;50.030;21.952;2023-01-24T13:37:32;100705.64;;;1.31;79.84
57847;BME280;43675;50.030;21.952;2023-01-24T13:40:04;100705.92;;;1.25;79.71
57847;BME280;43675;50.030;21.952;2023-01-24T13:47:50;100714.56;;;1.22;79.99
57847;BME280;43675;50.030;21.952;2023-01-24T13:50:21;100716.95;;;1.24;79.90
57847;BME280;43675;50.030;21.952;2023-01-24T13:52:56;100722.55;;;1.22;79.79
57847;BME280;43675;50.030;21.952;2023-01-24T14:00:49;100736.92;;;1.23;79.82
57847;BME280;43675;50.030;21.952;2023-01-24T14:03:18;100742.86;;;1.21;79.83
57847;BME280;43675;50.030;21.952;2023-01-24T14:21:24;100746.75;;;0.93;80.21
57847;BME280;43675;50.030;21.952;2023-01-24T14:23:57;100745.67;;;0.93;80.35
57847;BME280;43675;50.030;21.952;2023-01-24T14:26:27;100746.16;;;0.93;80.35
57847;BME280;43675;50.030;21.952;2023-01-24T14:28:58;100747.05;;;0.94;80.32
57847;BME280;43675;50.030;21.952;2023-01-24T14:31:33;100743.83;;;0.94;80.52
57847;BME280;43675;50.030;21.952;2023-01-24T14:34:11;100746.12;;;0.94;80.44
57847;BME280;43675;50.030;21.952;2023-01-24T14:36:42;100750.37;;;0.97;80.53
57847;BME280;43675;50.030;21.952;2023-01-24T14:39:20;100745.17;;;0.98;80.55
57847;BME280;43675;50.030;21.952;2023-01-24T14:41:49;100746.97;;;0.98;80.69
57847;BME280;43675;50.030;21.952;2023-01-24T14:44:23;100747.92;;;0.97;80.72
57847;BME280;43675;50.030;21.952;2023-01-24T14:46:58;100748.50;;;0.96;80.70
57847;BME280;43675;50.030;21.952;2023-01-24T14:49:41;100745.84;;;0.96;80.68